sensor_id;sensor_type;location;lat;lon;timestamp;temperature;humidity
5932;DHT22;2991;49.368;8.528;2022-07-17T00:00:41;28.80;74.90
5932;DHT22;2991;49.368;8.528;2022-07-17T00:03:13;28.80;74.90
5932;DHT22;2991;49.368;8.528;2022-07-17T00:05:40;28.80;74.80
5932;DHT22;2991;49.368;8.528;2022-07-17T00:08:06;28.80;74.90
5932;DHT22;2991;49.368;8.528;2022-07-17T00:10:33;28.80;74.80
5932;DHT22;2991;49.368;8.528;2022-07-17T00:12:58;28.80;74.80
5932;DHT22;2991;49.368;8.528;2022-07-17T00:15:24;28.80;74.80
5932;DHT22;2991;49.368;8.528;2022-07-17T00:17:49;28.80;74.80
5932;DHT22;2991;49.368;8.528;2022-07-17T00:20:15;28.80;74.80
5932;DHT22;2991;49.368;8.528;2022-07-17T00:22:41;28.80;74.90
5932;DHT22;2991;49.368;8.528;2022-07-17T00:25:09;28.80;74.90
5932;DHT22;2991;49.368;8.528;2022-07-17T00:27:35;28.70;75.50
5932;DHT22;2991;49.368;8.528;2022-07-17T00:30:01;28.70;74.90
5932;DHT22;2991;49.368;8.528;2022-07-17T00:32:27;28.70;74.90
5932;DHT22;2991;49.368;8.528;2022-07-17T00:34:53;28.70;74.90
5932;DHT22;2991;49.368;8.528;2022-07-17T00:37:18;28.70;74.90
5932;DHT22;2991;49.368;8.528;2022-07-17T00:39:44;28.70;75.40
5932;DHT22;2991;49.368;8.528;2022-07-17T00:42:13;28.70;75.00
5932;DHT22;2991;49.368;8.528;2022-07-17T00:44:40;28.70;75.00
5932;DHT22;2991;49.368;8.528;2022-07-17T00:47:13;28.60;74.90
5932;DHT22;2991;49.368;8.528;2022-07-17T00:49:39;28.70;75.10
5932;DHT22;2991;49.368;8.528;2022-07-17T00:52:06;28.60;74.90
5932;DHT22;2991;49.368;8.528;2022-07-17T00:54:37;28.60;74.90
5932;DHT22;2991;49.368;8.528;2022-07-17T00:57:06;28.60;75.00
5932;DHT22;2991;49.368;8.528;2022-07-17T00:59:32;28.60;75.00
5932;DHT22;2991;49.368;8.528;2022-07-17T01:02:01;28.60;74.90
5932;DHT22;2991;49.368;8.528;2022-07-17T01:04:27;28.60;74.80
5932;DHT22;2991;49.368;8.528;2022-07-17T01:06:53;28.60;74.80
5932;DHT22;2991;49.368;8.528;2022-07-17T01:09:19;28.60;74.80
5932;DHT22;2991;49.368;8.528;2022-07-17T01:11:44;28.60;74.90
5932;DHT22;2991;49.368;8.528;2022-07-17T01:14:13;28.60;74.90
5932;DHT22;2991;49.368;8.528;2022-07-17T01:16:39;28.50;74.80
5932;DHT22;2991;49.368;8.528;2022-07-17T01:19:07;28.60;74.80
5932;DHT22;2991;49.368;8.528;2022-07-17T01:21:44;28.50;74.70
5932;DHT22;2991;49.368;8.528;2022-07-17T01:24:10;28.50;74.70
5932;DHT22;2991;49.368;8.528;2022-07-17T01:26:36;28.50;74.80
5932;DHT22;2991;49.368;8.528;2022-07-17T01:29:02;28.50;74.90
5932;DHT22;2991;49.368;8.528;2022-07-17T01:31:28;28.50;75.00
5932;DHT22;2991;49.368;8.528;2022-07-17T01:33:54;28.50;75.10
5932;DHT22;2991;49.368;8.528;2022-07-17T01:36:24;28.40;75.00
5932;DHT22;2991;49.368;8.528;2022-07-17T01:38:50;28.50;75.10
5932;DHT22;2991;49.368;8.528;2022-07-17T01:41:16;28.40;75.00
5932;DHT22;2991;49.368;8.528;2022-07-17T01:43:41;28.40;75.00
5932;DHT22;2991;49.368;8.528;2022-07-17T01:46:07;28.40;75.10
5932;DHT22;2991;49.368;8.528;2022-07-17T01:48:33;28.40;75.10
5932;DHT22;2991;49.368;8.528;2022-07-17T01:50:58;28.40;75.10
5932;DHT22;2991;49.368;8.528;2022-07-17T01:53:24;28.40;75.10
5932;DHT22;2991;49.368;8.528;2022-07-17T01:55:50;28.40;75.20
5932;DHT22;2991;49.368;8.528;2022-07-17T01:58:15;28.40;75.20
5932;DHT22;2991;49.368;8.528;2022-07-17T02:00:41;28.30;75.10
5932;DHT22;2991;49.368;8.528;2022-07-17T02:03:07;28.30;75.00
5932;DHT22;2991;49.368;8.528;2022-07-17T02:05:33;28.30;75.00
5932;DHT22;2991;49.368;8.528;2022-07-17T02:07:58;28.30;75.00
5932;DHT22;2991;49.368;8.528;2022-07-17T02:10:24;28.30;75.80
5932;DHT22;2991;49.368;8.528;2022-07-17T02:12:50;28.30;75.10
5932;DHT22;2991;49.368;8.528;2022-07-17T02:15:15;28.30;75.10
5932;DHT22;2991;49.368;8.528;2022-07-17T02:17:41;28.30;75.20
5932;DHT22;2991;49.368;8.528;2022-07-17T02:20:08;28.30;75.20
5932;DHT22;2991;49.368;8.528;2022-07-17T02:22:36;28.30;75.30
5932;DHT22;2991;49.368;8.528;2022-07-17T02:25:03;28.20;75.30
5932;DHT22;2991;49.368;8.528;2022-07-17T02:27:31;28.20;75.30
5932;DHT22;2991;49.368;8.528;2022-07-17T02:29:56;28.20;75.40
5932;DHT22;2991;49.368;8.528;2022-07-17T02:32:22;28.20;75.50
5932;DHT22;2991;49.368;8.528;2022-07-17T02:34:47;28.20;75.50
5932;DHT22;2991;49.368;8.528;2022-07-17T02:37:13;28.20;75.50
5932;DHT22;2991;49.368;8.528;2022-07-17T02:39:38;28.20;75.50
5932;DHT22;2991;49.368;8.528;2022-07-17T02:42:21;28.20;75.60
5932;DHT22;2991;49.368;8.528;2022-07-17T02:44:47;28.10;75.60
5932;DHT22;2991;49.368;8.528;2022-07-17T02:47:14;28.10;75.60
5932;DHT22;2991;49.368;8.528;2022-07-17T02:49:39;28.10;75.50
5932;DHT22;2991;49.368;8.528;2022-07-17T02:52:05;28.10;75.60
5932;DHT22;2991;49.368;8.528;2022-07-17T02:54:30;28.10;75.60
5932;DHT22;2991;49.368;8.528;2022-07-17T02:56:56;28.10;75.50
5932;DHT22;2991;49.368;8.528;2022-07-17T02:59:21;28.10;75.40
5932;DHT22;2991;49.368;8.528;2022-07-17T03:01:47;28.10;75.40
5932;DHT22;2991;49.368;8.528;2022-07-17T03:04:12;28.00;75.30
5932;DHT22;2991;49.368;8.528;2022-07-17T03:06:43;28.00;75.30
5932;DHT22;2991;49.368;8.528;2022-07-17T03:09:08;28.10;75.40
5932;DHT22;2991;49.368;8.528;2022-07-17T03:11:34;28.00;75.30
5932;DHT22;2991;49.368;8.528;2022-07-17T03:14:07;28.00;75.30
5932;DHT22;2991;49.368;8.528;2022-07-17T03:16:33;28.00;75.30
5932;DHT22;2991;49.368;8.528;2022-07-17T03:18:58;28.00;75.40
5932;DHT22;2991;49.368;8.528;2022-07-17T03:21:24;28.00;75.50
5932;DHT22;2991;49.368;8.528;2022-07-17T03:23:50;27.90;76.20
5932;DHT22;2991;49.368;8.528;2022-07-17T03:26:15;27.90;75.60
5932;DHT22;2991;49.368;8.528;2022-07-17T03:28:41;27.90;75.60
5932;DHT22;2991;49.368;8.528;2022-07-17T03:31:06;27.90;75.70
5932;DHT22;2991;49.368;8.528;2022-07-17T03:33:55;28.00;75.80
5932;DHT22;2991;49.368;8.528;2022-07-17T03:36:48;27.90;75.70
5932;DHT22;2991;49.368;8.528;2022-07-17T03:39:29;27.90;75.70
5932;DHT22;2991;49.368;8.528;2022-07-17T03:42:02;27.90;75.80
5932;DHT22;2991;49.368;8.528;2022-07-17T03:44:31;27.90;75.80
5932;DHT22;2991;49.368;8.528;2022-07-17T03:47:04;27.90;75.90
5932;DHT22;2991;49.368;8.528;2022-07-17T03:49:30;27.90;75.90
5932;DHT22;2991;49.368;8.528;2022-07-17T03:51:56;27.80;75.80
5932;DHT22;2991;49.368;8.528;2022-07-17T03:54:21;27.80;75.80
5932;DHT22;2991;49.368;8.528;2022-07-17T03:56:47;27.90;75.90
5932;DHT22;2991;49.368;8.528;2022-07-17T03:59:12;27.80;75.80
5932;DHT22;2991;49.368;8.528;2022-07-17T04:01:38;27.80;75.80
5932;DHT22;2991;49.368;8.528;2022-07-17T04:04:04;27.80;75.80
5932;DHT22;2991;49.368;8.528;2022-07-17T04:06:29;27.80;75.90
5932;DHT22;2991;49.368;8.528;2022-07-17T04:08:55;27.80;75.90
5932;DHT22;2991;49.368;8.528;2022-07-17T04:11:20;27.70;75.80
5932;DHT22;2991;49.368;8.528;2022-07-17T04:13:47;27.70;75.90
5932;DHT22;2991;49.368;8.528;2022-07-17T04:16:12;27.70;75.90
5932;DHT22;2991;49.368;8.528;2022-07-17T04:18:38;27.70;76.00
5932;DHT22;2991;49.368;8.528;2022-07-17T04:21:06;27.70;76.10
5932;DHT22;2991;49.368;8.528;2022-07-17T04:23:32;27.70;76.10
5932;DHT22;2991;49.368;8.528;2022-07-17T04:25:58;27.70;76.10
5932;DHT22;2991;49.368;8.528;2022-07-17T04:28:24;27.70;76.20
5932;DHT22;2991;49.368;8.528;2022-07-17T04:30:50;27.70;76.20
5932;DHT22;2991;49.368;8.528;2022-07-17T04:33:16;27.70;76.20
5932;DHT22;2991;49.368;8.528;2022-07-17T04:35:41;27.70;76.20
5932;DHT22;2991;49.368;8.528;2022-07-17T04:38:07;27.70;76.30
5932;DHT22;2991;49.368;8.528;2022-07-17T04:40:35;27.60;76.20
5932;DHT22;2991;49.368;8.528;2022-07-17T04:43:02;27.70;76.30
5932;DHT22;2991;49.368;8.528;2022-07-17T04:45:28;27.60;76.30
5932;DHT22;2991;49.368;8.528;2022-07-17T04:47:53;27.60;76.30
5932;DHT22;2991;49.368;8.528;2022-07-17T04:50:20;27.60;76.40
5932;DHT22;2991;49.368;8.528;2022-07-17T04:52:45;27.60;76.40
5932;DHT22;2991;49.368;8.528;2022-07-17T04:55:11;27.60;76.30
5932;DHT22;2991;49.368;8.528;2022-07-17T04:57:37;27.60;76.40
5932;DHT22;2991;49.368;8.528;2022-07-17T05:00:05;27.60;76.40
5932;DHT22;2991;49.368;8.528;2022-07-17T05:02:31;27.50;76.40
5932;DHT22;2991;49.368;8.528;2022-07-17T05:04:56;27.50;76.40
5932;DHT22;2991;49.368;8.528;2022-07-17T05:07:25;27.50;76.50
5932;DHT22;2991;49.368;8.528;2022-07-17T05:09:50;27.50;76.50
5932;DHT22;2991;49.368;8.528;2022-07-17T05:12:16;27.50;76.60
5932;DHT22;2991;49.368;8.528;2022-07-17T05:14:42;27.50;77.30
5932;DHT22;2991;49.368;8.528;2022-07-17T05:17:08;27.50;76.70
5932;DHT22;2991;49.368;8.528;2022-07-17T05:19:37;27.50;76.70
5932;DHT22;2991;49.368;8.528;2022-07-17T05:22:03;27.50;76.70
5932;DHT22;2991;49.368;8.528;2022-07-17T05:24:30;27.50;76.70
5932;DHT22;2991;49.368;8.528;2022-07-17T05:26:59;27.50;76.70
5932;DHT22;2991;49.368;8.528;2022-07-17T05:29:25;27.50;76.70
5932;DHT22;2991;49.368;8.528;2022-07-17T05:31:57;27.50;76.70
5932;DHT22;2991;49.368;8.528;2022-07-17T05:34:23;27.50;76.70
5932;DHT22;2991;49.368;8.528;2022-07-17T05:37:05;27.40;76.70
5932;DHT22;2991;49.368;8.528;2022-07-17T05:39:52;27.50;76.70
5932;DHT22;2991;49.368;8.528;2022-07-17T05:42:34;27.40;76.70
5932;DHT22;2991;49.368;8.528;2022-07-17T05:45:04;27.50;76.90
5932;DHT22;2991;49.368;8.528;2022-07-17T05:47:32;27.40;76.80
5932;DHT22;2991;49.368;8.528;2022-07-17T05:49:58;27.40;76.70
5932;DHT22;2991;49.368;8.528;2022-07-17T05:52:24;27.40;76.80
5932;DHT22;2991;49.368;8.528;2022-07-17T05:54:55;27.40;76.80
5932;DHT22;2991;49.368;8.528;2022-07-17T05:57:21;27.40;76.90
5932;DHT22;2991;49.368;8.528;2022-07-17T05:59:49;27.40;77.00
5932;DHT22;2991;49.368;8.528;2022-07-17T06:02:15;27.40;77.10
5932;DHT22;2991;49.368;8.528;2022-07-17T06:04:47;27.30;77.00
5932;DHT22;2991;49.368;8.528;2022-07-17T06:07:13;27.30;77.10
5932;DHT22;2991;49.368;8.528;2022-07-17T06:09:41;27.30;77.10
5932;DHT22;2991;49.368;8.528;2022-07-17T06:12:07;27.30;77.00
5932;DHT22;2991;49.368;8.528;2022-07-17T06:14:36;27.30;77.10
5932;DHT22;2991;49.368;8.528;2022-07-17T06:17:01;27.30;77.10
5932;DHT22;2991;49.368;8.528;2022-07-17T06:19:27;27.30;77.20
5932;DHT22;2991;49.368;8.528;2022-07-17T06:21:54;27.30;77.20
5932;DHT22;2991;49.368;8.528;2022-07-17T06:24:25;27.30;77.20
5932;DHT22;2991;49.368;8.528;2022-07-17T06:26:56;27.30;77.20
5932;DHT22;2991;49.368;8.528;2022-07-17T06:29:22;27.30;77.20
5932;DHT22;2991;49.368;8.528;2022-07-17T06:31:56;27.30;77.20
5932;DHT22;2991;49.368;8.528;2022-07-17T06:34:28;27.30;77.20
5932;DHT22;2991;49.368;8.528;2022-07-17T06:36:57;27.30;77.20
5932;DHT22;2991;49.368;8.528;2022-07-17T06:39:25;27.30;77.20
5932;DHT22;2991;49.368;8.528;2022-07-17T06:41:55;27.40;77.10
5932;DHT22;2991;49.368;8.528;2022-07-17T06:44:21;27.40;77.10
5932;DHT22;2991;49.368;8.528;2022-07-17T06:46:48;27.40;77.00
5932;DHT22;2991;49.368;8.528;2022-07-17T06:49:22;27.40;76.90
5932;DHT22;2991;49.368;8.528;2022-07-17T06:51:52;27.50;76.90
5932;DHT22;2991;49.368;8.528;2022-07-17T06:54:18;27.50;76.70
5932;DHT22;2991;49.368;8.528;2022-07-17T06:56:44;27.60;76.50
5932;DHT22;2991;49.368;8.528;2022-07-17T06:59:13;27.60;76.40
5932;DHT22;2991;49.368;8.528;2022-07-17T07:01:42;27.70;76.20
5932;DHT22;2991;49.368;8.528;2022-07-17T07:04:13;27.80;76.20
5932;DHT22;2991;49.368;8.528;2022-07-17T07:06:48;27.90;76.10
5932;DHT22;2991;49.368;8.528;2022-07-17T07:09:14;28.00;75.90
5932;DHT22;2991;49.368;8.528;2022-07-17T07:11:44;28.10;76.30
5932;DHT22;2991;49.368;8.528;2022-07-17T07:14:10;28.20;74.50
5932;DHT22;2991;49.368;8.528;2022-07-17T07:16:36;28.30;72.10
5932;DHT22;2991;49.368;8.528;2022-07-17T07:19:04;28.40;71.70
5932;DHT22;2991;49.368;8.528;2022-07-17T07:21:30;28.40;71.00
5932;DHT22;2991;49.368;8.528;2022-07-17T07:23:56;28.50;70.70
5932;DHT22;2991;49.368;8.528;2022-07-17T07:26:23;28.60;70.70
5932;DHT22;2991;49.368;8.528;2022-07-17T07:28:49;28.60;69.20
5932;DHT22;2991;49.368;8.528;2022-07-17T07:31:14;28.70;68.70
5932;DHT22;2991;49.368;8.528;2022-07-17T07:33:42;28.70;68.10
5932;DHT22;2991;49.368;8.528;2022-07-17T07:36:08;28.80;67.80
5932;DHT22;2991;49.368;8.528;2022-07-17T07:38:34;28.80;67.40
5932;DHT22;2991;49.368;8.528;2022-07-17T07:41:00;28.90;67.20
5932;DHT22;2991;49.368;8.528;2022-07-17T07:43:26;28.90;66.00
5932;DHT22;2991;49.368;8.528;2022-07-17T07:45:51;29.00;66.20
5932;DHT22;2991;49.368;8.528;2022-07-17T07:48:17;29.00;66.40
5932;DHT22;2991;49.368;8.528;2022-07-17T07:50:43;29.10;66.00
5932;DHT22;2991;49.368;8.528;2022-07-17T07:53:09;29.00;65.30
5932;DHT22;2991;49.368;8.528;2022-07-17T07:55:35;29.10;65.10
5932;DHT22;2991;49.368;8.528;2022-07-17T07:58:02;29.10;65.50
5932;DHT22;2991;49.368;8.528;2022-07-17T08:00:28;29.10;64.60
5932;DHT22;2991;49.368;8.528;2022-07-17T08:02:54;29.20;64.60
5932;DHT22;2991;49.368;8.528;2022-07-17T08:05:20;29.20;64.60
5932;DHT22;2991;49.368;8.528;2022-07-17T08:07:48;29.20;65.50
5932;DHT22;2991;49.368;8.528;2022-07-17T08:10:14;29.30;64.70
5932;DHT22;2991;49.368;8.528;2022-07-17T08:12:43;29.30;64.30
5932;DHT22;2991;49.368;8.528;2022-07-17T08:15:09;29.30;64.30
5932;DHT22;2991;49.368;8.528;2022-07-17T08:17:35;29.40;64.10
5932;DHT22;2991;49.368;8.528;2022-07-17T08:20:00;29.40;63.80
5932;DHT22;2991;49.368;8.528;2022-07-17T08:22:26;29.30;63.30
5932;DHT22;2991;49.368;8.528;2022-07-17T08:24:55;29.30;63.50
5932;DHT22;2991;49.368;8.528;2022-07-17T08:27:21;29.40;63.60
5932;DHT22;2991;49.368;8.528;2022-07-17T08:29:47;29.40;63.10
5932;DHT22;2991;49.368;8.528;2022-07-17T08:32:16;29.40;63.70
5932;DHT22;2991;49.368;8.528;2022-07-17T08:34:41;29.40;63.60
5932;DHT22;2991;49.368;8.528;2022-07-17T08:37:09;29.30;63.20
5932;DHT22;2991;49.368;8.528;2022-07-17T08:39:35;29.50;63.70
5932;DHT22;2991;49.368;8.528;2022-07-17T08:42:04;29.60;63.00
5932;DHT22;2991;49.368;8.528;2022-07-17T08:44:36;29.60;63.20
5932;DHT22;2991;49.368;8.528;2022-07-17T08:47:11;29.60;63.00
5932;DHT22;2991;49.368;8.528;2022-07-17T08:49:43;29.50;63.00
5932;DHT22;2991;49.368;8.528;2022-07-17T08:52:10;29.50;62.80
5932;DHT22;2991;49.368;8.528;2022-07-17T08:54:36;29.60;62.70
5932;DHT22;2991;49.368;8.528;2022-07-17T08:57:03;29.60;62.60
5932;DHT22;2991;49.368;8.528;2022-07-17T08:59:29;29.60;62.50
5932;DHT22;2991;49.368;8.528;2022-07-17T09:01:55;29.60;62.10
5932;DHT22;2991;49.368;8.528;2022-07-17T09:04:21;29.50;61.40
5932;DHT22;2991;49.368;8.528;2022-07-17T09:07:01;29.60;62.00
5932;DHT22;2991;49.368;8.528;2022-07-17T09:09:33;29.70;61.90
5932;DHT22;2991;49.368;8.528;2022-07-17T09:12:00;29.70;62.30
5932;DHT22;2991;49.368;8.528;2022-07-17T09:14:41;29.70;62.30
5932;DHT22;2991;49.368;8.528;2022-07-17T09:17:15;29.70;62.70
5932;DHT22;2991;49.368;8.528;2022-07-17T09:19:43;29.80;63.50
5932;DHT22;2991;49.368;8.528;2022-07-17T09:22:16;29.90;63.80
5932;DHT22;2991;49.368;8.528;2022-07-17T09:27:32;29.60;63.00
5932;DHT22;2991;49.368;8.528;2022-07-17T09:32:29;29.70;63.50
5932;DHT22;2991;49.368;8.528;2022-07-17T09:34:57;29.90;63.00
5932;DHT22;2991;49.368;8.528;2022-07-17T09:37:27;29.90;63.40
5932;DHT22;2991;49.368;8.528;2022-07-17T09:39:55;29.90;62.60
5932;DHT22;2991;49.368;8.528;2022-07-17T09:42:28;30.00;62.20
5932;DHT22;2991;49.368;8.528;2022-07-17T09:45:01;30.00;62.60
5932;DHT22;2991;49.368;8.528;2022-07-17T09:47:28;29.90;62.40
5932;DHT22;2991;49.368;8.528;2022-07-17T09:49:59;29.90;62.40
5932;DHT22;2991;49.368;8.528;2022-07-17T09:52:28;29.90;62.20
5932;DHT22;2991;49.368;8.528;2022-07-17T09:55:04;30.00;62.20
5932;DHT22;2991;49.368;8.528;2022-07-17T09:57:41;30.00;62.40
5932;DHT22;2991;49.368;8.528;2022-07-17T10:00:08;30.00;62.30
5932;DHT22;2991;49.368;8.528;2022-07-17T10:02:42;30.00;62.30
5932;DHT22;2991;49.368;8.528;2022-07-17T10:05:13;30.10;61.70
5932;DHT22;2991;49.368;8.528;2022-07-17T10:07:44;30.10;61.40
5932;DHT22;2991;49.368;8.528;2022-07-17T10:10:16;30.00;61.80
5932;DHT22;2991;49.368;8.528;2022-07-17T10:12:49;30.10;62.00
5932;DHT22;2991;49.368;8.528;2022-07-17T10:15:17;30.00;60.70
5932;DHT22;2991;49.368;8.528;2022-07-17T10:17:45;30.00;60.70
5932;DHT22;2991;49.368;8.528;2022-07-17T10:20:11;30.00;60.60
5932;DHT22;2991;49.368;8.528;2022-07-17T10:22:47;30.10;59.90
5932;DHT22;2991;49.368;8.528;2022-07-17T10:25:15;30.20;60.00
5932;DHT22;2991;49.368;8.528;2022-07-17T10:27:52;30.10;59.70
5932;DHT22;2991;49.368;8.528;2022-07-17T10:30:28;30.10;58.90
5932;DHT22;2991;49.368;8.528;2022-07-17T10:32:57;30.10;58.60
5932;DHT22;2991;49.368;8.528;2022-07-17T10:35:27;30.20;58.80
5932;DHT22;2991;49.368;8.528;2022-07-17T10:38:09;30.20;59.20
5932;DHT22;2991;49.368;8.528;2022-07-17T10:40:37;30.10;59.20
5932;DHT22;2991;49.368;8.528;2022-07-17T10:43:04;30.30;59.50
5932;DHT22;2991;49.368;8.528;2022-07-17T10:45:41;30.20;59.60
5932;DHT22;2991;49.368;8.528;2022-07-17T10:48:18;30.30;60.90
5932;DHT22;2991;49.368;8.528;2022-07-17T10:50:54;30.20;60.70
5932;DHT22;2991;49.368;8.528;2022-07-17T10:53:34;30.30;60.20
5932;DHT22;2991;49.368;8.528;2022-07-17T10:56:06;30.30;60.00
5932;DHT22;2991;49.368;8.528;2022-07-17T10:58:36;30.40;59.70
5932;DHT22;2991;49.368;8.528;2022-07-17T11:01:22;30.40;59.50
5932;DHT22;2991;49.368;8.528;2022-07-17T11:04:12;30.50;59.80
5932;DHT22;2991;49.368;8.528;2022-07-17T11:06:41;30.50;60.50
5932;DHT22;2991;49.368;8.528;2022-07-17T11:09:09;30.50;61.20
5932;DHT22;2991;49.368;8.528;2022-07-17T11:16:49;30.60;60.10
5932;DHT22;2991;49.368;8.528;2022-07-17T11:19:26;30.80;60.80
5932;DHT22;2991;49.368;8.528;2022-07-17T11:21:54;30.90;60.60
5932;DHT22;2991;49.368;8.528;2022-07-17T11:24:20;30.90;60.20
5932;DHT22;2991;49.368;8.528;2022-07-17T11:26:50;30.90;60.20
5932;DHT22;2991;49.368;8.528;2022-07-17T11:29:19;31.00;60.70
5932;DHT22;2991;49.368;8.528;2022-07-17T11:32:07;30.90;60.20
5932;DHT22;2991;49.368;8.528;2022-07-17T11:34:52;30.90;60.50
5932;DHT22;2991;49.368;8.528;2022-07-17T11:37:28;31.00;60.50
5932;DHT22;2991;49.368;8.528;2022-07-17T11:47:32;31.20;60.60
5932;DHT22;2991;49.368;8.528;2022-07-17T11:50:24;31.30;60.70
5932;DHT22;2991;49.368;8.528;2022-07-17T11:52:50;31.20;60.60
5932;DHT22;2991;49.368;8.528;2022-07-17T11:55:16;31.20;60.50
5932;DHT22;2991;49.368;8.528;2022-07-17T11:57:44;31.20;60.00
5932;DHT22;2991;49.368;8.528;2022-07-17T12:00:10;31.10;60.10
5932;DHT22;2991;49.368;8.528;2022-07-17T12:02:36;31.20;60.10
5932;DHT22;2991;49.368;8.528;2022-07-17T12:05:02;31.20;60.00
5932;DHT22;2991;49.368;8.528;2022-07-17T12:07:45;31.30;59.60
5932;DHT22;2991;49.368;8.528;2022-07-17T12:10:18;31.40;59.80
5932;DHT22;2991;49.368;8.528;2022-07-17T12:13:01;31.40;59.90
5932;DHT22;2991;49.368;8.528;2022-07-17T12:15:42;31.40;59.70
5932;DHT22;2991;49.368;8.528;2022-07-17T12:18:21;31.40;59.70
5932;DHT22;2991;49.368;8.528;2022-07-17T12:20:48;31.60;59.80
5932;DHT22;2991;49.368;8.528;2022-07-17T12:23:39;31.60;59.50
5932;DHT22;2991;49.368;8.528;2022-07-17T12:26:12;31.50;59.10
5932;DHT22;2991;49.368;8.528;2022-07-17T12:28:40;31.40;59.20
5932;DHT22;2991;49.368;8.528;2022-07-17T12:31:07;31.20;58.70
5932;DHT22;2991;49.368;8.528;2022-07-17T12:33:33;31.40;58.60
5932;DHT22;2991;49.368;8.528;2022-07-17T12:35:59;31.50;58.00
5932;DHT22;2991;49.368;8.528;2022-07-17T12:38:24;31.50;58.20
5932;DHT22;2991;49.368;8.528;2022-07-17T12:40:50;31.50;58.20
5932;DHT22;2991;49.368;8.528;2022-07-17T12:43:16;31.40;58.80
5932;DHT22;2991;49.368;8.528;2022-07-17T12:45:41;31.50;59.60
5932;DHT22;2991;49.368;8.528;2022-07-17T12:48:07;31.40;59.50
5932;DHT22;2991;49.368;8.528;2022-07-17T12:50:33;31.40;57.30
5932;DHT22;2991;49.368;8.528;2022-07-17T12:52:58;31.40;57.50
5932;DHT22;2991;49.368;8.528;2022-07-17T12:55:24;31.50;57.70
5932;DHT22;2991;49.368;8.528;2022-07-17T12:57:49;31.50;56.90
5932;DHT22;2991;49.368;8.528;2022-07-17T13:00:15;31.60;56.80
5932;DHT22;2991;49.368;8.528;2022-07-17T13:02:43;31.60;57.20
5932;DHT22;2991;49.368;8.528;2022-07-17T13:05:09;31.60;57.40
5932;DHT22;2991;49.368;8.528;2022-07-17T13:07:35;31.50;58.10
5932;DHT22;2991;49.368;8.528;2022-07-17T13:10:00;31.50;58.20
5932;DHT22;2991;49.368;8.528;2022-07-17T13:12:26;31.40;59.20
5932;DHT22;2991;49.368;8.528;2022-07-17T13:14:52;31.50;58.80
5932;DHT22;2991;49.368;8.528;2022-07-17T13:17:17;31.60;57.60
5932;DHT22;2991;49.368;8.528;2022-07-17T13:19:43;31.40;58.30
5932;DHT22;2991;49.368;8.528;2022-07-17T13:22:08;31.50;58.70
5932;DHT22;2991;49.368;8.528;2022-07-17T13:24:34;31.50;58.50
5932;DHT22;2991;49.368;8.528;2022-07-17T13:26:59;31.50;57.80
5932;DHT22;2991;49.368;8.528;2022-07-17T13:29:25;31.50;57.50
5932;DHT22;2991;49.368;8.528;2022-07-17T13:31:55;31.50;57.70
5932;DHT22;2991;49.368;8.528;2022-07-17T13:34:21;31.70;58.20
5932;DHT22;2991;49.368;8.528;2022-07-17T13:36:47;31.70;57.70
5932;DHT22;2991;49.368;8.528;2022-07-17T13:39:13;31.60;57.90
5932;DHT22;2991;49.368;8.528;2022-07-17T13:41:39;31.60;57.80
5932;DHT22;2991;49.368;8.528;2022-07-17T13:44:06;31.70;57.50
5932;DHT22;2991;49.368;8.528;2022-07-17T13:46:32;31.70;57.40
5932;DHT22;2991;49.368;8.528;2022-07-17T13:48:58;31.60;57.00
5932;DHT22;2991;49.368;8.528;2022-07-17T13:51:23;31.60;56.50
5932;DHT22;2991;49.368;8.528;2022-07-17T13:53:49;31.60;56.80
5932;DHT22;2991;49.368;8.528;2022-07-17T13:56:15;31.60;57.10
5932;DHT22;2991;49.368;8.528;2022-07-17T13:58:41;31.70;57.30
5932;DHT22;2991;49.368;8.528;2022-07-17T14:01:06;31.70;57.30
5932;DHT22;2991;49.368;8.528;2022-07-17T14:03:32;31.60;56.70
5932;DHT22;2991;49.368;8.528;2022-07-17T14:05:58;31.70;56.70
5932;DHT22;2991;49.368;8.528;2022-07-17T14:08:24;31.80;57.10
5932;DHT22;2991;49.368;8.528;2022-07-17T14:10:50;31.80;57.00
5932;DHT22;2991;49.368;8.528;2022-07-17T14:13:16;31.70;56.70
5932;DHT22;2991;49.368;8.528;2022-07-17T14:15:41;31.60;56.40
5932;DHT22;2991;49.368;8.528;2022-07-17T14:18:07;31.50;56.50
5932;DHT22;2991;49.368;8.528;2022-07-17T14:20:33;31.40;55.60
5932;DHT22;2991;49.368;8.528;2022-07-17T14:22:58;31.50;55.70
5932;DHT22;2991;49.368;8.528;2022-07-17T14:25:24;31.70;55.90
5932;DHT22;2991;49.368;8.528;2022-07-17T14:27:49;31.60;56.80
5932;DHT22;2991;49.368;8.528;2022-07-17T14:30:15;31.70;56.30
5932;DHT22;2991;49.368;8.528;2022-07-17T14:32:41;31.70;55.70
5932;DHT22;2991;49.368;8.528;2022-07-17T14:35:07;31.70;56.10
5932;DHT22;2991;49.368;8.528;2022-07-17T14:37:34;31.80;55.90
5932;DHT22;2991;49.368;8.528;2022-07-17T14:39:59;31.70;55.20
5932;DHT22;2991;49.368;8.528;2022-07-17T14:42:27;31.70;55.40
5932;DHT22;2991;49.368;8.528;2022-07-17T14:44:52;31.70;55.60
5932;DHT22;2991;49.368;8.528;2022-07-17T14:47:18;31.70;55.10
5932;DHT22;2991;49.368;8.528;2022-07-17T14:49:44;31.70;55.50
5932;DHT22;2991;49.368;8.528;2022-07-17T14:52:12;31.70;54.90
5932;DHT22;2991;49.368;8.528;2022-07-17T14:54:38;31.70;54.90
5932;DHT22;2991;49.368;8.528;2022-07-17T14:57:03;31.60;55.10
5932;DHT22;2991;49.368;8.528;2022-07-17T14:59:29;31.70;55.50
5932;DHT22;2991;49.368;8.528;2022-07-17T15:01:55;31.80;55.30
5932;DHT22;2991;49.368;8.528;2022-07-17T15:04:23;31.80;55.20
5932;DHT22;2991;49.368;8.528;2022-07-17T15:06:49;31.80;55.20
5932;DHT22;2991;49.368;8.528;2022-07-17T15:09:14;31.80;55.50
5932;DHT22;2991;49.368;8.528;2022-07-17T15:11:40;31.90;55.60
5932;DHT22;2991;49.368;8.528;2022-07-17T15:14:06;31.90;54.80
5932;DHT22;2991;49.368;8.528;2022-07-17T15:16:31;31.80;54.50
5932;DHT22;2991;49.368;8.528;2022-07-17T15:18:57;31.70;55.10
5932;DHT22;2991;49.368;8.528;2022-07-17T15:21:23;31.60;54.40
5932;DHT22;2991;49.368;8.528;2022-07-17T15:23:48;31.60;54.50
5932;DHT22;2991;49.368;8.528;2022-07-17T15:26:14;31.60;54.70
5932;DHT22;2991;49.368;8.528;2022-07-17T15:28:39;31.70;54.80
5932;DHT22;2991;49.368;8.528;2022-07-17T15:31:05;31.70;55.00
5932;DHT22;2991;49.368;8.528;2022-07-17T15:33:31;31.60;55.10
5932;DHT22;2991;49.368;8.528;2022-07-17T15:35:59;31.80;55.30
5932;DHT22;2991;49.368;8.528;2022-07-17T15:38:28;31.70;55.30
5932;DHT22;2991;49.368;8.528;2022-07-17T15:40:53;31.70;55.20
5932;DHT22;2991;49.368;8.528;2022-07-17T15:43:19;31.70;54.60
5932;DHT22;2991;49.368;8.528;2022-07-17T15:45:45;31.70;54.20
5932;DHT22;2991;49.368;8.528;2022-07-17T15:48:10;31.70;55.00
5932;DHT22;2991;49.368;8.528;2022-07-17T15:50:36;31.70;54.20
5932;DHT22;2991;49.368;8.528;2022-07-17T15:53:02;31.70;54.50
5932;DHT22;2991;49.368;8.528;2022-07-17T15:55:30;31.80;54.20
5932;DHT22;2991;49.368;8.528;2022-07-17T15:57:56;31.70;54.10
5932;DHT22;2991;49.368;8.528;2022-07-17T16:00:22;31.80;53.70
5932;DHT22;2991;49.368;8.528;2022-07-17T16:02:48;31.90;53.20
5932;DHT22;2991;49.368;8.528;2022-07-17T16:05:14;31.90;53.40
5932;DHT22;2991;49.368;8.528;2022-07-17T16:07:39;31.90;53.50
5932;DHT22;2991;49.368;8.528;2022-07-17T16:10:05;31.90;53.40
5932;DHT22;2991;49.368;8.528;2022-07-17T16:12:31;31.80;53.60
5932;DHT22;2991;49.368;8.528;2022-07-17T16:15:01;31.80;53.80
5932;DHT22;2991;49.368;8.528;2022-07-17T16:17:27;31.90;54.40
5932;DHT22;2991;49.368;8.528;2022-07-17T16:19:54;31.80;54.20
5932;DHT22;2991;49.368;8.528;2022-07-17T16:22:19;31.80;54.20
5932;DHT22;2991;49.368;8.528;2022-07-17T16:24:45;31.90;53.80